Time;durP1;ratioP1;P1;durP2;ratioP2;P2;SDS_P1;SDS_P2;PMS_P1;PMS_P2;Temp;Humidity;BMP_temperature;BMP_pressure;BME280_temperature;BME280_humidity;BME280_pressure;Samples;Min_cycle;Max_cycle;Signal;HPM_P1;HPM_P2
2023/09/05 13:14:48;;;;;;;2.80;1.40;;;;;;;35.46;27.10;100572.28;5142486;27;20361;-87
2023/09/05 13:17:15;;;;;;;4.68;1.52;;;;;;;36.02;27.42;100564.69;5094741;28;20462;-86
2023/09/05 13:19:41;;;;;;;3.87;1.30;;;;;;;36.40;25.92;100557.91;5088431;28;20422;-86
2023/09/05 13:22:06;;;;;;;2.13;1.17;;;;;;;36.66;25.94;100557.28;5086109;28;20403;-87
2023/09/05 13:24:32;;;;;;;6.20;1.90;;;;;;;36.84;25.09;100551.44;5086492;28;20494;-85
2023/09/05 13:26:59;;;;;;;1.90;1.10;;;;;;;36.97;24.70;100549.66;5084296;28;20760;-86
2023/09/05 13:29:24;;;;;;;4.65;1.10;;;;;;;37.01;24.11;100556.09;5079249;28;20834;-88
2023/09/05 13:31:50;;;;;;;1.52;1.17;;;;;;;36.91;23.86;100555.00;5120118;27;20383;-87
2023/09/05 13:34:16;;;;;;;4.20;1.30;;;;;;;36.88;23.86;100547.31;5088283;28;20414;-88
2023/09/05 13:36:41;;;;;;;3.97;1.42;;;;;;;36.72;23.75;100543.50;5083353;28;20399;-87
2023/09/05 13:39:07;;;;;;;1.20;1.10;;;;;;;36.70;23.97;100538.28;5084979;28;20880;-86
2023/09/05 13:41:32;;;;;;;8.13;1.23;;;;;;;36.81;23.79;100536.13;5089528;28;20470;-87
2023/09/05 13:43:58;;;;;;;2.40;1.10;;;;;;;36.94;23.55;100539.22;5078995;28;20396;-87
2023/09/05 13:46:24;;;;;;;1.40;0.90;;;;;;;36.91;23.61;100535.22;5080329;28;20402;-88
2023/09/05 13:48:50;;;;;;;4.80;1.60;;;;;;;37.34;23.50;100543.16;5084098;28;20402;-88
2023/09/05 13:51:21;;;;;;;3.70;1.30;;;;;;;37.73;22.66;100534.13;5083626;27;20398;-89
2023/09/05 13:53:50;;;;;;;6.33;1.30;;;;;;;37.99;22.14;100533.34;5078843;28;20471;-89
2023/09/05 13:56:15;;;;;;;4.33;1.00;;;;;;;38.00;22.44;100523.63;5084220;28;20411;-88
2023/09/05 13:58:41;;;;;;;3.83;1.40;;;;;;;38.18;22.14;100526.94;5084980;28;20785;-86
2023/09/05 14:01:06;;;;;;;4.57;1.07;;;;;;;38.19;21.70;100531.38;5073418;28;20401;-85
2023/09/05 14:03:32;;;;;;;9.50;1.63;;;;;;;38.13;21.92;100524.63;5084476;28;20401;-87
2023/09/05 14:05:57;;;;;;;6.20;1.53;;;;;;;38.01;22.37;100530.06;5075391;28;20403;-87
2023/09/05 14:08:24;;;;;;;4.05;1.27;;;;;;;37.71;22.15;100526.06;5084270;28;20477;-87
2023/09/05 14:10:50;;;;;;;4.25;1.00;;;;;;;37.63;22.54;100529.44;5080190;28;20395;-85
2023/09/05 14:13:15;;;;;;;10.03;1.70;;;;;;;37.63;22.85;100518.13;5079387;28;20422;-82
2023/09/05 14:15:41;;;;;;;5.60;1.67;;;;;;;37.37;22.58;100517.69;5080953;28;20429;-85
2023/09/05 14:18:06;;;;;;;2.27;0.90;;;;;;;37.29;22.67;100512.53;5084826;28;20430;-85
2023/09/05 14:20:32;;;;;;;7.63;1.70;;;;;;;37.17;22.92;100505.44;5083067;28;20401;-83
2023/09/05 14:22:57;;;;;;;4.30;1.17;;;;;;;37.05;22.68;100506.00;5087997;28;20474;-86
2023/09/05 14:25:22;;;;;;;2.27;1.10;;;;;;;36.85;22.76;100505.81;5068504;28;20436;-86
2023/09/05 14:27:47;;;;;;;1.80;1.03;;;;;;;36.70;23.12;100501.56;5065260;28;20414;-84
2023/09/05 14:30:16;;;;;;;1.67;1.13;;;;;;;36.64;23.23;100491.97;5062152;28;20395;-84
2023/09/05 14:32:41;;;;;;;1.50;1.00;;;;;;;36.65;23.12;100492.75;5063164;28;20420;-85
2023/09/05 14:35:07;;;;;;;3.10;1.10;;;;;;;36.52;22.48;100488.84;5060210;28;20960;-86
2023/09/05 14:37:32;;;;;;;1.42;1.08;;;;;;;36.41;23.32;100495.41;5065075;28;20392;-87
2023/09/05 14:39:57;;;;;;;1.00;1.00;;;;;;;36.34;23.38;100491.84;5067926;28;20407;-84
2023/09/05 14:42:23;;;;;;;5.33;1.33;;;;;;;36.20;23.18;100484.31;5070196;28;20422;-85
2023/09/05 14:44:48;;;;;;;1.70;1.10;;;;;;;36.17;23.97;100490.00;5068959;28;20782;-84
2023/09/05 14:47:15;;;;;;;1.97;0.90;;;;;;;35.93;24.64;100484.16;5058588;28;20781;-86
2023/09/05 14:49:41;;;;;;;5.10;1.30;;;;;;;35.53;25.21;100481.22;5054268;28;20417;-85
2023/09/05 14:52:06;;;;;;;1.77;0.95;;;;;;;35.04;25.85;100477.44;5068784;28;20392;-84
2023/09/05 14:54:32;;;;;;;1.03;0.93;;;;;;;34.47;26.38;100485.31;5060260;28;20415;-84
2023/09/05 14:56:57;;;;;;;4.87;1.40;;;;;;;34.17;26.89;100479.34;5062172;28;20408;-85
2023/09/05 14:59:22;;;;;;;3.22;1.20;;;;;;;34.09;27.02;100486.94;5052123;28;20885;-83
2023/09/05 15:01:48;;;;;;;1.27;1.00;;;;;;;34.05;26.82;100482.53;5087260;27;20456;-86
2023/09/05 15:04:13;;;;;;;1.40;0.80;;;;;;;33.91;26.91;100480.53;5052902;28;20405;-87
2023/09/05 15:06:38;;;;;;;3.47;1.40;;;;;;;33.87;26.91;100482.53;5058317;28;20907;-87
2023/09/05 15:09:05;;;;;;;3.93;1.33;;;;;;;33.69;27.14;100490.94;5056668;28;20882;-88
2023/09/05 15:11:30;;;;;;;2.65;1.10;;;;;;;33.53;26.95;100486.88;5057070;28;22349;-87
2023/09/05 15:13:56;;;;;;;2.90;0.90;;;;;;;33.39;27.16;100484.88;5057380;28;20911;-87
2023/09/05 15:16:25;;;;;;;1.33;1.07;;;;;;;33.21;27.14;100476.41;5057899;28;20424;-85
2023/09/05 15:18:50;;;;;;;3.60;1.10;;;;;;;33.13;27.38;100466.34;5056116;28;20503;-87
2023/09/05 15:21:15;;;;;;;1.40;1.10;;;;;;;33.04;27.76;100468.69;5056979;28;20762;-90
2023/09/05 15:23:41;;;;;;;1.97;1.13;;;;;;;32.97;27.99;100470.66;5057717;28;20926;-89
2023/09/05 15:26:06;;;;;;;2.90;1.20;;;;;;;32.79;28.80;100465.81;5060277;28;20412;-85
2023/09/05 15:28:31;;;;;;;2.80;0.90;;;;;;;32.62;28.88;100472.16;5057603;28;20405;-84
2023/09/05 15:30:57;;;;;;;2.10;0.90;;;;;;;32.56;29.02;100470.06;5060654;28;20904;-85
2023/09/05 15:33:23;;;;;;;1.37;0.97;;;;;;;32.52;29.05;100469.25;5057435;28;20421;-84
2023/09/05 15:35:56;;;;;;;2.67;1.10;;;;;;;32.33;29.28;100473.16;5060322;28;20490;-84
2023/09/05 15:38:21;;;;;;;1.90;1.00;;;;;;;32.27;29.09;100477.53;5056162;28;20951;-85
2023/09/05 15:40:48;;;;;;;3.50;1.00;;;;;;;32.10;29.63;100473.41;5059021;28;20412;-83
2023/09/05 15:43:15;;;;;;;1.10;1.05;;;;;;;32.00;30.13;100474.09;5057504;28;20748;-85
2023/09/05 15:45:48;;;;;;;2.20;0.90;;;;;;;31.95;30.04;100466.03;5057481;28;20839;-84
2023/09/05 15:48:15;;;;;;;3.10;1.08;;;;;;;31.73;30.52;100467.06;5088431;27;20445;-83
2023/09/05 15:50:42;;;;;;;3.00;1.13;;;;;;;31.56;30.56;100468.50;5062395;28;20449;-84
2023/09/05 15:53:07;;;;;;;4.45;1.20;;;;;;;31.47;31.23;100458.78;5066611;28;20429;-85
2023/09/05 15:55:33;;;;;;;2.20;1.20;;;;;;;31.46;31.14;100463.59;5057870;28;20437;-84
2023/09/05 15:57:58;;;;;;;2.33;1.30;;;;;;;31.47;30.80;100468.00;5067491;28;20396;-83
2023/09/05 16:00:24;;;;;;;1.73;1.30;;;;;;;31.31;31.15;100465.47;5064389;28;20395;-83
2023/09/05 16:02:49;;;;;;;4.83;1.17;;;;;;;31.20;31.47;100467.31;5066740;28;20406;-83
2023/09/05 16:05:14;;;;;;;0.90;0.90;;;;;;;31.14;31.88;100473.66;5067205;28;20473;-86
2023/09/05 16:07:40;;;;;;;5.13;1.30;;;;;;;31.14;32.13;100470.84;5062691;28;20434;-87
2023/09/05 16:10:06;;;;;;;1.30;1.20;;;;;;;31.06;32.13;100467.16;5096694;27;20469;-85
2023/09/05 16:12:31;;;;;;;1.33;1.23;;;;;;;30.99;32.08;100469.88;5069709;28;20394;-85
2023/09/05 16:14:56;;;;;;;4.47;1.33;;;;;;;30.99;31.88;100478.28;5058185;28;20436;-86
2023/09/05 16:17:22;;;;;;;2.60;1.00;;;;;;;30.97;32.35;100477.03;5064500;28;20408;-87
2023/09/05 16:20:04;;;;;;;7.00;1.27;;;;;;;30.79;32.96;100476.81;5067021;28;20412;-84
2023/09/05 16:22:33;;;;;;;1.30;1.00;;;;;;;30.79;32.47;100483.19;5058252;28;20867;-83
2023/09/05 16:24:59;;;;;;;2.55;1.20;;;;;;;30.76;32.88;100483.97;5069049;28;20399;-85
2023/09/05 16:27:25;;;;;;;4.43;1.27;;;;;;;30.71;33.01;100480.69;5059253;28;20443;-88
2023/09/05 16:29:53;;;;;;;0.90;0.90;;;;;;;30.65;33.04;100487.81;5070276;28;20443;-87
2023/09/05 16:32:18;;;;;;;3.50;0.90;;;;;;;30.60;32.96;100491.75;5068816;28;20763;-87
2023/09/05 16:34:44;;;;;;;5.87;0.97;;;;;;;30.55;33.33;100489.28;5068965;28;20427;-88
2023/09/05 16:37:15;;;;;;;2.07;1.07;;;;;;;30.46;33.63;100494.34;5065098;28;20403;-88
2023/09/05 16:39:43;;;;;;;2.45;1.23;;;;;;;30.46;33.49;100490.75;5070673;28;20403;-87
2023/09/05 16:42:11;;;;;;;1.42;1.20;;;;;;;30.40;33.79;100490.25;5070555;28;20941;-87
2023/09/05 16:44:40;;;;;;;6.93;1.07;;;;;;;30.36;33.65;100492.97;5071418;28;20468;-88
2023/09/05 16:47:05;;;;;;;3.85;1.20;;;;;;;30.30;34.29;100499.25;5075331;28;20907;-86
2023/09/05 16:49:30;;;;;;;2.70;0.80;;;;;;;30.24;34.55;100495.97;5068919;28;20399;-88
2023/09/05 16:51:57;;;;;;;1.93;1.27;;;;;;;30.23;34.08;100505.53;5083627;28;20442;-87
2023/09/05 16:54:23;;;;;;;6.05;1.30;;;;;;;30.19;34.58;100498.31;5068198;28;20907;-86
2023/09/05 16:56:48;;;;;;;1.50;1.00;;;;;;;30.12;35.13;100501.78;5068899;28;20407;-86
2023/09/05 16:59:14;;;;;;;2.60;0.95;;;;;;;30.08;34.84;100498.13;5071290;28;20487;-86
2023/09/05 17:01:40;;;;;;;1.40;1.20;;;;;;;30.03;35.03;100503.25;5074594;28;20407;-86
2023/09/05 17:04:05;;;;;;;1.20;1.10;;;;;;;29.98;34.87;100504.34;5064928;28;20410;-85
2023/09/05 17:06:30;;;;;;;3.47;1.20;;;;;;;29.92;35.21;100505.03;5069570;28;20404;-85
2023/09/05 17:08:56;;;;;;;2.70;1.07;;;;;;;29.85;35.20;100505.72;5070541;28;20549;-85
2023/09/05 17:11:22;;;;;;;7.82;1.00;;;;;;;29.80;35.54;100501.22;5066949;28;20541;-88
2023/09/05 17:13:47;;;;;;;4.40;1.23;;;;;;;29.75;35.63;100503.53;5070701;28;20510;-92
2023/09/05 17:16:13;;;;;;;4.97;1.17;;;;;;;29.67;36.06;100502.59;5073460;28;20407;-85
2023/09/05 17:18:41;;;;;;;6.27;1.13;;;;;;;29.62;36.10;100507.69;5075884;28;20420;-86
2023/09/05 17:21:06;;;;;;;3.38;1.67;;;;;;;29.55;36.57;100502.78;5066837;28;20431;-88
2023/09/05 17:23:35;;;;;;;2.70;1.20;;;;;;;29.51;36.70;100503.88;5071000;28;20497;-85
2023/09/05 17:26:00;;;;;;;1.60;1.30;;;;;;;29.49;36.87;100506.25;5073200;28;20398;-86
2023/09/05 17:28:25;;;;;;;1.33;1.13;;;;;;;29.42;36.88;100509.72;5067122;28;20402;-88
2023/09/05 17:30:51;;;;;;;2.80;1.10;;;;;;;29.33;37.02;100506.34;5066004;28;20399;-86
2023/09/05 17:33:16;;;;;;;3.47;1.30;;;;;;;29.31;37.86;100506.72;5064217;28;21091;-86
2023/09/05 17:35:42;;;;;;;3.70;1.13;;;;;;;29.26;37.80;100509.81;5067450;28;20412;-88
2023/09/05 17:38:07;;;;;;;21.10;2.23;;;;;;;29.22;37.61;100508.09;5069622;28;20928;-87
2023/09/05 17:40:33;;;;;;;3.07;1.27;;;;;;;29.16;37.60;100515.16;5070102;28;20413;-85
2023/09/05 17:42:59;;;;;;;1.30;1.00;;;;;;;29.10;38.45;100511.84;5071285;28;20399;-85
2023/09/05 17:45:24;;;;;;;20.25;2.00;;;;;;;29.04;38.11;100513.34;5068866;28;20450;-85
2023/09/05 17:47:50;;;;;;;7.60;1.45;;;;;;;29.01;38.02;100513.25;5066018;28;20521;-89
2023/09/05 17:50:15;;;;;;;2.72;1.05;;;;;;;28.97;37.95;100515.16;5069235;28;20436;-87
2023/09/05 17:52:41;;;;;;;2.17;1.10;;;;;;;28.92;38.26;100519.03;5069690;28;20879;-84
2023/09/05 17:55:06;;;;;;;1.60;1.30;;;;;;;28.90;38.20;100524.19;5063984;28;20771;-84
2023/09/05 17:57:32;;;;;;;1.52;1.05;;;;;;;28.83;38.64;100524.03;5065750;28;20414;-84
2023/09/05 17:59:57;;;;;;;1.83;1.40;;;;;;;28.77;38.73;100533.88;5069948;28;20402;-84
2023/09/05 18:02:22;;;;;;;5.30;1.60;;;;;;;28.72;38.62;100534.94;5081142;28;20409;-83
2023/09/05 18:04:50;;;;;;;1.70;1.20;;;;;;;28.66;38.72;100532.81;5075926;28;20438;-83
2023/09/05 18:07:16;;;;;;;1.90;1.40;;;;;;;28.60;39.01;100542.59;5081436;28;20407;-83
2023/09/05 18:09:41;;;;;;;1.00;1.00;;;;;;;28.55;39.36;100537.34;5077073;28;20422;-83
2023/09/05 18:12:06;;;;;;;2.33;1.23;;;;;;;28.52;39.20;100547.19;5070889;28;20404;-83
2023/09/05 18:14:35;;;;;;;3.77;1.30;;;;;;;28.46;39.49;100537.50;5078539;28;20421;-83
2023/09/05 18:17:01;;;;;;;2.08;1.88;;;;;;;28.36;39.79;100535.28;5063310;28;20423;-83
2023/09/05 18:19:26;;;;;;;3.30;1.20;;;;;;;28.30;39.67;100542.31;5077500;28;20404;-83
2023/09/05 18:21:51;;;;;;;0.80;0.80;;;;;;;28.25;39.77;100546.19;5074556;28;20800;-83
2023/09/05 18:24:17;;;;;;;1.70;1.60;;;;;;;28.27;39.60;100540.25;5074409;28;20399;-83
2023/09/05 18:26:43;;;;;;;1.70;1.45;;;;;;;28.23;39.85;100553.28;5073678;28;20400;-83
2023/09/05 18:29:09;;;;;;;1.73;1.30;;;;;;;28.18;39.83;100546.03;5071260;28;20421;-82
2023/09/05 18:31:35;;;;;;;1.60;1.50;;;;;;;28.15;39.99;100540.34;5077400;28;20827;-83
2023/09/05 18:34:00;;;;;;;4.13;1.30;;;;;;;28.12;39.84;100544.69;5075957;28;20490;-83
2023/09/05 18:36:26;;;;;;;3.90;1.60;;;;;;;28.09;39.93;100548.16;5076310;28;20407;-83
2023/09/05 18:38:52;;;;;;;4.13;1.60;;;;;;;28.04;39.96;100558.75;5069977;28;20391;-84
2023/09/05 18:41:19;;;;;;;6.05;1.42;;;;;;;28.00;40.29;100550.28;5081539;28;20406;-83
2023/09/05 18:43:49;;;;;;;3.38;1.30;;;;;;;27.88;40.55;100555.16;5073917;28;20457;-83
2023/09/05 18:46:15;;;;;;;9.03;1.43;;;;;;;27.86;40.77;100552.72;5072796;28;20413;-84
2023/09/05 18:48:42;;;;;;;13.65;1.75;;;;;;;27.72;41.02;100550.38;5072452;28;20897;-83
2023/09/05 18:51:12;;;;;;;6.40;1.65;;;;;;;27.66;40.97;100548.22;5079190;28;20416;-83
2023/09/05 18:53:38;;;;;;;13.85;2.03;;;;;;;27.62;41.17;100552.88;5085299;28;20482;-83
2023/09/05 18:56:08;;;;;;;3.55;1.30;;;;;;;27.57;41.27;100553.13;5083107;28;20397;-84
2023/09/05 18:58:34;;;;;;;1.93;1.50;;;;;;;27.53;41.38;100549.47;5080097;28;20439;-83
2023/09/05 19:01:00;;;;;;;1.40;1.20;;;;;;;27.49;41.22;100546.56;5078566;28;20809;-82
2023/09/05 19:03:26;;;;;;;1.17;1.17;;;;;;;27.45;41.39;100547.63;5078969;28;20498;-83
2023/09/05 19:05:52;;;;;;;1.35;1.25;;;;;;;27.40;41.54;100559.00;5077911;28;20405;-84
2023/09/05 19:08:18;;;;;;;1.77;1.30;;;;;;;27.34;41.77;100564.00;5076262;28;20392;-84
2023/09/05 19:10:43;;;;;;;2.10;1.25;;;;;;;27.29;42.62;100569.81;5074746;28;20406;-83
2023/09/05 19:13:13;;;;;;;2.37;1.10;;;;;;;27.23;42.97;100572.03;5071278;28;20423;-83
2023/09/05 19:15:39;;;;;;;1.45;1.45;;;;;;;27.18;43.10;100585.41;5077642;28;20402;-83
2023/09/05 19:18:05;;;;;;;1.83;1.42;;;;;;;27.09;43.44;100585.56;5079362;28;20388;-83
2023/09/05 19:20:30;;;;;;;3.08;1.35;;;;;;;27.04;43.75;100587.75;5072347;28;20825;-83
2023/09/05 19:22:56;;;;;;;1.40;1.30;;;;;;;27.00;44.15;100593.22;5076554;28;20463;-83
2023/09/05 19:25:22;;;;;;;2.10;1.30;;;;;;;26.96;43.72;100595.09;5073563;28;20392;-82
2023/09/05 19:27:49;;;;;;;1.40;1.30;;;;;;;27.03;43.52;100589.75;5078703;28;20493;-82
2023/09/05 19:30:16;;;;;;;2.35;1.38;;;;;;;27.01;43.69;100602.34;5074000;28;20456;-83
2023/09/05 19:32:41;;;;;;;1.63;1.35;;;;;;;26.95;43.86;100601.81;5073281;28;20437;-83
2023/09/05 19:35:10;;;;;;;2.47;1.37;;;;;;;26.91;44.05;100603.66;5084162;28;20854;-82
2023/09/05 19:37:36;;;;;;;1.55;1.45;;;;;;;26.86;44.07;100597.53;5068830;28;20461;-83
2023/09/05 19:40:05;;;;;;;1.73;1.63;;;;;;;26.82;44.39;100600.22;5065712;28;20391;-82
2023/09/05 19:42:33;;;;;;;2.33;1.90;;;;;;;26.77;44.54;100600.44;5090268;28;20403;-82
2023/09/05 19:44:59;;;;;;;2.60;1.38;;;;;;;26.72;44.75;100597.88;5071729;28;21273;-81
2023/09/05 19:47:24;;;;;;;1.98;1.58;;;;;;;26.67;44.94;100595.34;5071178;28;20398;-81
2023/09/05 19:49:49;;;;;;;2.17;2.07;;;;;;;26.59;45.16;100604.59;5072250;28;20399;-81
2023/09/05 19:52:15;;;;;;;5.83;2.10;;;;;;;26.52;44.86;100594.06;5073017;28;20396;-82
2023/09/05 19:54:40;;;;;;;3.67;2.23;;;;;;;26.47;45.03;100597.09;5074136;28;20435;-82
2023/09/05 19:57:08;;;;;;;3.27;1.77;;;;;;;26.46;45.19;100587.13;5069799;28;20781;-83
2023/09/05 19:59:34;;;;;;;4.10;1.67;;;;;;;26.48;44.59;100592.31;5067445;28;20462;-83
2023/09/05 20:01:59;;;;;;;2.87;1.70;;;;;;;26.49;44.26;100583.66;5069264;28;20387;-83
2023/09/05 20:04:24;;;;;;;2.23;1.60;;;;;;;26.50;44.09;100576.94;5103426;28;20403;-83
2023/09/05 20:06:52;;;;;;;2.23;1.87;;;;;;;26.50;43.95;100590.03;5064573;28;20402;-83
2023/09/05 20:09:17;;;;;;;2.13;1.98;;;;;;;26.46;44.04;100589.91;5074864;28;20411;-83
2023/09/05 20:11:42;;;;;;;2.30;1.77;;;;;;;26.43;43.99;100596.16;5070184;28;20739;-83
2023/09/05 20:14:07;;;;;;;2.70;1.70;;;;;;;26.37;44.11;100597.56;5068242;28;20408;-83
2023/09/05 20:16:33;;;;;;;3.57;2.30;;;;;;;26.34;44.30;100586.31;5070615;28;20423;-83
2023/09/05 20:19:08;;;;;;;3.87;2.00;;;;;;;26.30;44.52;100600.09;5066652;28;20489;-83
2023/09/05 20:21:33;;;;;;;3.35;2.40;;;;;;;26.31;44.64;100596.16;5069982;28;20423;-83
2023/09/05 20:23:58;;;;;;;4.23;1.73;;;;;;;26.31;44.54;100593.41;5066519;28;20401;-83
2023/09/05 20:26:25;;;;;;;2.90;2.10;;;;;;;26.27;44.49;100600.78;5069860;28;20415;-83
2023/09/05 20:28:50;;;;;;;1.80;1.60;;;;;;;26.26;44.68;100602.75;5068542;28;20798;-83
2023/09/05 20:31:15;;;;;;;1.70;1.60;;;;;;;26.17;44.51;100599.28;5066571;28;20410;-83
2023/09/05 20:33:44;;;;;;;1.97;1.80;;;;;;;26.23;44.34;100605.41;5070279;28;20400;-83
2023/09/05 20:36:09;;;;;;;4.07;1.58;;;;;;;26.15;44.86;100598.78;5067987;28;20446;-83
2023/09/05 20:38:35;;;;;;;5.50;1.97;;;;;;;26.14;44.84;100610.25;5064039;28;20828;-81
2023/09/05 20:41:00;;;;;;;3.23;1.80;;;;;;;26.00;45.19;100607.78;5065572;28;20807;-81
2023/09/05 20:43:26;;;;;;;5.27;1.90;;;;;;;26.05;45.10;100606.75;5093603;28;20432;-82
2023/09/05 20:45:51;;;;;;;4.65;1.70;;;;;;;25.98;45.21;100599.00;5050108;28;20419;-82
2023/09/05 20:48:17;;;;;;;2.30;2.10;;;;;;;25.92;45.42;100599.56;5066676;28;20399;-82
2023/09/05 20:50:42;;;;;;;2.47;1.87;;;;;;;25.85;45.79;100600.13;5059171;28;20436;-82
2023/09/05 20:53:08;;;;;;;3.23;1.80;;;;;;;25.83;45.80;100602.41;5056059;28;20398;-83
2023/09/05 20:55:33;;;;;;;2.33;2.13;;;;;;;25.76;45.98;100594.66;5105576;27;20398;-82
2023/09/05 20:57:59;;;;;;;2.65;1.70;;;;;;;25.68;46.16;100603.91;5068161;28;20411;-82
2023/09/05 21:00:29;;;;;;;3.53;2.07;;;;;;;25.67;46.51;100593.94;5072291;28;20450;-83
2023/09/05 21:02:58;;;;;;;2.25;1.88;;;;;;;25.67;46.54;100596.72;5079539;28;20409;-82
2023/09/05 21:05:25;;;;;;;5.30;2.13;;;;;;;25.67;46.73;100590.34;5069128;28;20396;-82
2023/09/05 21:07:50;;;;;;;2.55;1.98;;;;;;;25.64;47.00;100593.81;5066983;28;20395;-83
2023/09/05 21:10:16;;;;;;;2.03;1.90;;;;;;;25.60;46.54;100587.31;5062322;28;20441;-81
2023/09/05 21:12:41;;;;;;;2.43;2.10;;;;;;;25.57;46.82;100583.28;5063382;28;20421;-81
2023/09/05 21:15:08;;;;;;;2.17;1.97;;;;;;;25.60;46.85;100585.34;5069198;28;20484;-82
2023/09/05 21:17:33;;;;;;;4.20;2.08;;;;;;;25.57;46.77;100588.81;5064395;28;20520;-82
2023/09/05 21:19:59;;;;;;;2.63;2.10;;;;;;;25.54;47.21;100585.91;5068460;28;20894;-82
2023/09/05 21:22:26;;;;;;;3.87;2.17;;;;;;;25.50;47.35;100583.00;5068617;28;20392;-82
2023/09/05 21:24:51;;;;;;;5.07;2.35;;;;;;;25.41;47.01;100584.22;5080609;28;20391;-82
2023/09/05 21:27:18;;;;;;;4.05;2.03;;;;;;;25.38;47.42;100582.13;5079722;28;20445;-82
2023/09/05 21:29:43;;;;;;;2.13;1.98;;;;;;;25.35;47.42;100585.59;5069310;28;20391;-82
2023/09/05 21:32:09;;;;;;;2.55;2.00;;;;;;;25.32;47.99;100587.09;5068381;28;20444;-82
2023/09/05 21:34:38;;;;;;;6.40;2.30;;;;;;;25.28;47.91;100584.19;5068395;28;20602;-82
2023/09/05 21:37:03;;;;;;;4.50;1.98;;;;;;;25.24;47.85;100585.19;5071618;28;20395;-82
2023/09/05 21:39:29;;;;;;;4.80;2.17;;;;;;;25.22;47.95;100590.28;5071681;28;20890;-83
2023/09/05 21:41:56;;;;;;;2.75;2.05;;;;;;;25.18;48.03;100592.91;5073093;28;20910;-82
2023/09/05 21:44:21;;;;;;;4.20;2.30;;;;;;;25.13;48.14;100579.22;5073392;28;20418;-82
2023/09/05 21:46:47;;;;;;;3.40;2.22;;;;;;;25.10;48.21;100584.63;5072850;28;20855;-82
2023/09/05 21:49:14;;;;;;;2.23;2.10;;;;;;;25.08;48.26;100575.84;5072909;28;20458;-83
2023/09/05 21:51:40;;;;;;;1.90;1.73;;;;;;;25.04;48.32;100567.41;5072829;28;20482;-82
2023/09/05 21:54:05;;;;;;;2.90;2.15;;;;;;;25.00;48.24;100579.50;5072433;28;20494;-82
2023/09/05 21:56:30;;;;;;;2.10;1.97;;;;;;;24.98;48.55;100571.53;5070298;28;20391;-82
2023/09/05 21:58:56;;;;;;;2.23;2.13;;;;;;;24.95;48.27;100583.31;5071700;28;20487;-82
2023/09/05 22:01:21;;;;;;;2.63;2.17;;;;;;;24.90;48.50;100579.91;5072924;28;20442;-83
2023/09/05 22:03:47;;;;;;;4.17;2.80;;;;;;;24.80;48.43;100578.31;5068351;28;20408;-82
2023/09/05 22:06:15;;;;;;;2.47;2.15;;;;;;;24.76;48.33;100575.41;5071936;28;20399;-83
2023/09/05 22:08:42;;;;;;;2.85;2.65;;;;;;;24.75;48.47;100570.22;5071934;28;20396;-83
2023/09/05 22:11:08;;;;;;;3.03;2.60;;;;;;;24.65;48.36;100574.19;5072036;28;20453;-82
2023/09/05 22:13:35;;;;;;;2.72;2.30;;;;;;;24.63;48.33;100564.59;5069585;28;20428;-83
2023/09/05 22:16:03;;;;;;;5.20;2.58;;;;;;;24.58;48.28;100568.38;5071017;28;20411;-83
2023/09/05 22:18:28;;;;;;;4.20;2.13;;;;;;;24.57;48.36;100572.28;5071986;28;20759;-82
2023/09/05 22:20:53;;;;;;;2.78;2.38;;;;;;;24.49;48.59;100567.63;5106311;27;20415;-83
2023/09/05 22:23:19;;;;;;;3.53;2.40;;;;;;;24.49;48.51;100566.78;5072299;28;20490;-83
2023/09/05 22:25:45;;;;;;;2.17;2.03;;;;;;;24.44;48.84;100561.44;5072181;28;20407;-82
2023/09/05 22:28:11;;;;;;;2.37;2.20;;;;;;;24.44;48.99;100565.03;5072499;28;20511;-82
2023/09/05 22:30:39;;;;;;;2.33;2.13;;;;;;;24.46;49.13;100570.25;5070692;28;20511;-82
2023/09/05 22:33:07;;;;;;;3.03;2.28;;;;;;;24.45;49.09;100574.16;5083445;28;20473;-82
2023/09/05 22:35:33;;;;;;;3.35;2.15;;;;;;;24.44;48.97;100578.88;5081852;28;20733;-82
2023/09/05 22:37:58;;;;;;;3.22;2.38;;;;;;;24.43;48.95;100571.72;5071294;28;20537;-82
2023/09/05 22:40:23;;;;;;;4.67;2.40;;;;;;;24.45;48.92;100571.38;5071736;28;20755;-82
2023/09/05 22:42:50;;;;;;;4.27;2.73;;;;;;;24.39;48.61;100565.22;5072258;28;20400;-82
2023/09/05 22:45:15;;;;;;;2.47;2.38;;;;;;;24.32;48.64;100575.19;5071514;28;20424;-82
2023/09/05 22:47:41;;;;;;;3.40;2.42;;;;;;;24.25;48.73;100570.19;5102500;27;20395;-82
2023/09/05 22:50:07;;;;;;;2.90;2.70;;;;;;;24.24;48.99;100568.53;5071975;28;20970;-82
2023/09/05 22:52:33;;;;;;;3.03;2.70;;;;;;;24.23;48.89;100573.28;5068937;28;20486;-82
2023/09/05 22:54:58;;;;;;;4.20;2.30;;;;;;;24.19;48.72;100572.34;5070652;28;20514;-81
2023/09/05 22:57:24;;;;;;;2.70;2.50;;;;;;;24.12;48.78;100572.03;5073072;28;20442;-83
2023/09/05 22:59:49;;;;;;;3.93;2.50;;;;;;;24.08;48.40;100573.81;5070768;28;20438;-82
2023/09/05 23:02:15;;;;;;;5.22;2.80;;;;;;;24.03;48.77;100578.72;5072885;28;20428;-82
2023/09/05 23:04:40;;;;;;;2.85;2.65;;;;;;;24.04;48.76;100588.66;5070304;28;20485;-82
2023/09/05 23:07:05;;;;;;;4.30;2.57;;;;;;;24.00;49.16;100577.44;5072897;28;20396;-82
2023/09/05 23:09:31;;;;;;;3.00;2.43;;;;;;;23.98;48.95;100573.34;5071273;28;20391;-82
2023/09/05 23:11:56;;;;;;;2.90;2.57;;;;;;;23.98;49.11;100570.59;5103520;28;20495;-82
2023/09/05 23:14:22;;;;;;;3.00;2.80;;;;;;;24.01;49.06;100573.50;5071081;28;20914;-82
2023/09/05 23:16:48;;;;;;;8.77;2.65;;;;;;;24.01;48.75;100575.44;5070170;28;20415;-82
2023/09/05 23:19:14;;;;;;;2.72;2.53;;;;;;;24.00;49.01;100566.38;5087125;28;20391;-82
2023/09/05 23:21:42;;;;;;;2.88;2.42;;;;;;;24.00;48.74;100571.09;5071707;28;20410;-82
2023/09/05 23:24:08;;;;;;;4.40;2.95;;;;;;;23.93;49.07;100576.31;5071268;28;20400;-81
2023/09/05 23:26:35;;;;;;;4.25;2.58;;;;;;;23.92;49.18;100577.44;5072713;28;20415;-82
2023/09/05 23:29:01;;;;;;;5.00;3.00;;;;;;;23.91;48.80;100579.41;5072181;28;20392;-82
2023/09/05 23:31:27;;;;;;;6.47;3.40;;;;;;;23.88;48.77;100582.00;5073041;28;21087;-81
2023/09/05 23:33:53;;;;;;;3.63;2.43;;;;;;;23.87;48.96;100580.41;5071948;28;20418;-82
2023/09/05 23:36:19;;;;;;;4.70;2.65;;;;;;;23.86;48.81;100582.34;5072751;28;20403;-81
2023/09/05 23:38:44;;;;;;;3.37;2.77;;;;;;;23.84;48.95;100581.88;5071926;28;20400;-81
2023/09/05 23:41:10;;;;;;;3.60;2.53;;;;;;;23.81;49.14;100581.75;5072085;28;20732;-82
2023/09/05 23:43:35;;;;;;;3.58;2.70;;;;;;;23.77;48.99;100582.41;5071075;28;20494;-81
2023/09/05 23:46:00;;;;;;;8.20;2.87;;;;;;;23.75;49.19;100584.66;5071343;28;20403;-82
2023/09/05 23:48:26;;;;;;;3.20;2.97;;;;;;;23.72;49.04;100571.50;5072358;28;20457;-81
2023/09/05 23:50:53;;;;;;;5.67;3.03;;;;;;;23.70;49.38;100584.84;5071827;28;20400;-83
2023/09/05 23:53:18;;;;;;;3.45;3.20;;;;;;;23.65;49.28;100584.19;5071768;28;20460;-82
2023/09/05 23:55:44;;;;;;;4.43;3.00;;;;;;;23.59;49.37;100586.34;5066853;28;20404;-82
2023/09/05 23:58:11;;;;;;;3.00;2.75;;;;;;;23.56;49.67;100589.75;5053168;28;20477;-82
